sensor_id;sensor_type;location;lat;lon;timestamp;pressure;altitude;pressure_sealevel;temperature;humidity
73842;BME280;62184;52.006;5.924;2023-05-22T00:01:29;100714.56;;;22.35;59.01
73842;BME280;62184;52.006;5.924;2023-05-22T00:03:55;100706.50;;;22.33;59.39
73842;BME280;62184;52.006;5.924;2023-05-22T00:06:22;100722.84;;;22.33;59.20
73842;BME280;62184;52.006;5.924;2023-05-22T00:08:48;100719.13;;;22.34;59.49
73842;BME280;62184;52.006;5.924;2023-05-22T00:11:17;100722.59;;;22.36;59.56
73842;BME280;62184;52.006;5.924;2023-05-22T00:13:44;100724.88;;;22.42;59.13
73842;BME280;62184;52.006;5.924;2023-05-22T00:16:10;100730.38;;;22.54;58.96
73842;BME280;62184;52.006;5.924;2023-05-22T00:18:36;100731.53;;;22.62;59.03
73842;BME280;62184;52.006;5.924;2023-05-22T00:21:03;100733.91;;;22.67;58.55
73842;BME280;62184;52.006;5.924;2023-05-22T00:23:30;100735.38;;;22.71;58.19
73842;BME280;62184;52.006;5.924;2023-05-22T00:25:56;100735.28;;;22.72;58.20
73842;BME280;62184;52.006;5.924;2023-05-22T00:28:25;100729.59;;;22.75;57.98
73842;BME280;62184;52.006;5.924;2023-05-22T00:30:53;100734.06;;;22.76;57.95
73842;BME280;62184;52.006;5.924;2023-05-22T00:33:19;100733.66;;;22.70;57.46
73842;BME280;62184;52.006;5.924;2023-05-22T00:35:46;100722.59;;;22.60;57.49
73842;BME280;62184;52.006;5.924;2023-05-22T00:38:26;100719.47;;;22.54;57.63
73842;BME280;62184;52.006;5.924;2023-05-22T00:40:54;100721.47;;;22.52;57.24
73842;BME280;62184;52.006;5.924;2023-05-22T00:43:20;100718.97;;;22.49;57.10
73842;BME280;62184;52.006;5.924;2023-05-22T00:45:49;100703.97;;;22.43;57.37
73842;BME280;62184;52.006;5.924;2023-05-22T00:48:16;100708.75;;;22.39;56.83
73842;BME280;62184;52.006;5.924;2023-05-22T00:50:42;100705.53;;;22.34;56.89
73842;BME280;62184;52.006;5.924;2023-05-22T00:53:09;100696.31;;;22.24;56.98
73842;BME280;62184;52.006;5.924;2023-05-22T00:55:36;100692.66;;;22.13;57.49
73842;BME280;62184;52.006;5.924;2023-05-22T00:58:04;100695.97;;;22.05;57.53
73842;BME280;62184;52.006;5.924;2023-05-22T01:00:32;100686.81;;;22.06;57.36
73842;BME280;62184;52.006;5.924;2023-05-22T01:03:02;100679.84;;;22.02;57.59
73842;BME280;62184;52.006;5.924;2023-05-22T01:05:30;100679.56;;;21.94;57.15
73842;BME280;62184;52.006;5.924;2023-05-22T01:07:56;100678.63;;;21.82;57.97
73842;BME280;62184;52.006;5.924;2023-05-22T01:10:23;100676.03;;;21.81;57.90
73842;BME280;62184;52.006;5.924;2023-05-22T01:12:56;100675.16;;;21.80;58.08
73842;BME280;62184;52.006;5.924;2023-05-22T01:15:33;100674.41;;;21.78;58.02
73842;BME280;62184;52.006;5.924;2023-05-22T01:18:15;100669.72;;;21.80;58.03
73842;BME280;62184;52.006;5.924;2023-05-22T01:20:50;100664.94;;;21.84;57.44
73842;BME280;62184;52.006;5.924;2023-05-22T01:24:04;100666.66;;;21.85;57.77
73842;BME280;62184;52.006;5.924;2023-05-22T01:27:30;100666.66;;;21.85;57.48
73842;BME280;62184;52.006;5.924;2023-05-22T01:30:19;100671.88;;;21.88;57.53
73842;BME280;62184;52.006;5.924;2023-05-22T01:33:06;100662.84;;;21.87;57.28
73842;BME280;62184;52.006;5.924;2023-05-22T01:35:37;100669.38;;;21.85;57.07
73842;BME280;62184;52.006;5.924;2023-05-22T01:38:06;100667.88;;;21.81;57.25
73842;BME280;62184;52.006;5.924;2023-05-22T01:40:35;100668.38;;;21.86;57.49
73842;BME280;62184;52.006;5.924;2023-05-22T01:43:02;100664.25;;;21.93;57.48
73842;BME280;62184;52.006;5.924;2023-05-22T01:45:29;100664.00;;;21.96;56.88
73842;BME280;62184;52.006;5.924;2023-05-22T01:47:56;100666.84;;;21.94;56.97
73842;BME280;62184;52.006;5.924;2023-05-22T01:50:25;100671.09;;;21.86;57.17
73842;BME280;62184;52.006;5.924;2023-05-22T01:52:56;100669.81;;;21.79;57.13
73842;BME280;62184;52.006;5.924;2023-05-22T01:55:33;100665.63;;;21.75;57.02
73842;BME280;62184;52.006;5.924;2023-05-22T01:58:09;100664.16;;;21.69;56.99
73842;BME280;62184;52.006;5.924;2023-05-22T02:00:42;100675.28;;;21.66;57.42
73842;BME280;62184;52.006;5.924;2023-05-22T02:03:15;100670.16;;;21.61;57.11
73842;BME280;62184;52.006;5.924;2023-05-22T02:05:50;100669.44;;;21.59;57.61
73842;BME280;62184;52.006;5.924;2023-05-22T02:08:20;100666.94;;;21.56;57.50
73842;BME280;62184;52.006;5.924;2023-05-22T02:10:48;100662.38;;;21.57;57.49
73842;BME280;62184;52.006;5.924;2023-05-22T02:13:17;100664.22;;;21.56;57.27
73842;BME280;62184;52.006;5.924;2023-05-22T02:15:45;100665.72;;;21.60;56.95
73842;BME280;62184;52.006;5.924;2023-05-22T02:18:12;100660.06;;;21.63;56.88
73842;BME280;62184;52.006;5.924;2023-05-22T02:20:39;100662.56;;;21.66;57.00
73842;BME280;62184;52.006;5.924;2023-05-22T02:23:09;100666.78;;;21.70;56.68
73842;BME280;62184;52.006;5.924;2023-05-22T02:25:35;100654.28;;;21.68;56.40
73842;BME280;62184;52.006;5.924;2023-05-22T02:28:02;100652.56;;;21.67;56.35
73842;BME280;62184;52.006;5.924;2023-05-22T02:30:28;100657.00;;;21.68;56.70
73842;BME280;62184;52.006;5.924;2023-05-22T02:32:54;100651.56;;;21.68;56.35
73842;BME280;62184;52.006;5.924;2023-05-22T02:35:22;100651.69;;;21.66;56.26
73842;BME280;62184;52.006;5.924;2023-05-22T02:37:48;100649.09;;;21.65;56.37
73842;BME280;62184;52.006;5.924;2023-05-22T02:40:18;100651.25;;;21.60;56.01
73842;BME280;62184;52.006;5.924;2023-05-22T02:42:44;100643.56;;;21.54;56.41
73842;BME280;62184;52.006;5.924;2023-05-22T02:45:10;100649.56;;;21.46;56.08
73842;BME280;62184;52.006;5.924;2023-05-22T02:47:37;100643.50;;;21.43;56.15
73842;BME280;62184;52.006;5.924;2023-05-22T02:50:04;100641.50;;;21.45;56.24
73842;BME280;62184;52.006;5.924;2023-05-22T02:52:32;100639.16;;;21.40;56.21
73842;BME280;62184;52.006;5.924;2023-05-22T02:54:58;100627.97;;;21.32;56.14
73842;BME280;62184;52.006;5.924;2023-05-22T02:57:27;100632.13;;;21.25;56.14
73842;BME280;62184;52.006;5.924;2023-05-22T02:59:54;100631.66;;;21.18;56.40
73842;BME280;62184;52.006;5.924;2023-05-22T03:02:21;100623.41;;;21.20;56.36
73842;BME280;62184;52.006;5.924;2023-05-22T03:04:47;100628.06;;;21.18;56.47
73842;BME280;62184;52.006;5.924;2023-05-22T03:07:13;100633.31;;;21.21;56.49
73842;BME280;62184;52.006;5.924;2023-05-22T03:09:40;100619.63;;;21.22;56.25
73842;BME280;62184;52.006;5.924;2023-05-22T03:12:07;100626.78;;;21.23;55.98
73842;BME280;62184;52.006;5.924;2023-05-22T03:14:37;100623.31;;;21.21;56.23
73842;BME280;62184;52.006;5.924;2023-05-22T03:17:04;100619.81;;;21.19;55.92
73842;BME280;62184;52.006;5.924;2023-05-22T03:19:30;100626.78;;;21.23;55.75
73842;BME280;62184;52.006;5.924;2023-05-22T03:21:57;100620.47;;;21.23;56.20
73842;BME280;62184;52.006;5.924;2023-05-22T03:24:23;100631.56;;;21.20;56.04
73842;BME280;62184;52.006;5.924;2023-05-22T03:26:50;100628.94;;;21.18;56.63
73842;BME280;62184;52.006;5.924;2023-05-22T03:29:16;100618.94;;;21.19;56.62
73842;BME280;62184;52.006;5.924;2023-05-22T03:31:46;100620.47;;;21.23;56.40
73842;BME280;62184;52.006;5.924;2023-05-22T03:34:12;100619.25;;;21.27;56.10
73842;BME280;62184;52.006;5.924;2023-05-22T03:36:38;100622.53;;;21.32;56.10
73842;BME280;62184;52.006;5.924;2023-05-22T03:39:05;100621.78;;;21.30;55.92
73842;BME280;62184;52.006;5.924;2023-05-22T03:41:31;100619.16;;;21.28;55.84
73842;BME280;62184;52.006;5.924;2023-05-22T03:43:58;100617.66;;;21.24;56.07
73842;BME280;62184;52.006;5.924;2023-05-22T03:46:24;100618.84;;;21.20;56.18
73842;BME280;62184;52.006;5.924;2023-05-22T03:48:54;100616.03;;;21.22;55.89
73842;BME280;62184;52.006;5.924;2023-05-22T03:51:20;100617.56;;;21.26;55.52
73842;BME280;62184;52.006;5.924;2023-05-22T03:53:46;100620.03;;;21.29;55.84
73842;BME280;62184;52.006;5.924;2023-05-22T03:56:13;100622.53;;;21.32;55.57
73842;BME280;62184;52.006;5.924;2023-05-22T03:58:39;100615.56;;;21.28;55.34
73842;BME280;62184;52.006;5.924;2023-05-22T04:01:06;100612.34;;;21.23;55.72
73842;BME280;62184;52.006;5.924;2023-05-22T04:03:32;100618.53;;;21.25;55.97
73842;BME280;62184;52.006;5.924;2023-05-22T04:06:01;100623.41;;;21.20;55.78
73842;BME280;62184;52.006;5.924;2023-05-22T04:08:28;100624.63;;;21.16;56.08
73842;BME280;62184;52.006;5.924;2023-05-22T04:10:54;100624.94;;;21.11;56.44
73842;BME280;62184;52.006;5.924;2023-05-22T04:13:21;100624.31;;;21.08;56.66
73842;BME280;62184;52.006;5.924;2023-05-22T04:15:47;100625.91;;;21.10;56.60
73842;BME280;62184;52.006;5.924;2023-05-22T04:18:14;100632.00;;;21.14;56.03
73842;BME280;62184;52.006;5.924;2023-05-22T04:20:40;100623.75;;;21.15;56.13
73842;BME280;62184;52.006;5.924;2023-05-22T04:23:09;100622.03;;;21.14;56.16
73842;BME280;62184;52.006;5.924;2023-05-22T04:25:36;100629.19;;;21.15;56.31
73842;BME280;62184;52.006;5.924;2023-05-22T04:28:02;100625.91;;;21.10;56.15
73842;BME280;62184;52.006;5.924;2023-05-22T04:30:29;100633.00;;;21.13;56.24
73842;BME280;62184;52.006;5.924;2023-05-22T04:32:56;100631.25;;;21.12;56.02
73842;BME280;62184;52.006;5.924;2023-05-22T04:35:22;100632.22;;;21.11;55.81
73842;BME280;62184;52.006;5.924;2023-05-22T04:37:48;100632.00;;;21.14;56.39
73842;BME280;62184;52.006;5.924;2023-05-22T04:40:17;100629.81;;;21.19;55.86
73842;BME280;62184;52.006;5.924;2023-05-22T04:42:44;100628.75;;;21.21;56.00
73842;BME280;62184;52.006;5.924;2023-05-22T04:45:10;100624.53;;;21.17;56.14
73842;BME280;62184;52.006;5.924;2023-05-22T04:47:37;100624.28;;;21.20;55.93
73842;BME280;62184;52.006;5.924;2023-05-22T04:50:04;100629.41;;;21.25;55.95
73842;BME280;62184;52.006;5.924;2023-05-22T04:52:32;100630.03;;;21.28;56.05
73842;BME280;62184;52.006;5.924;2023-05-22T04:54:58;100624.28;;;21.33;55.96
73842;BME280;62184;52.006;5.924;2023-05-22T04:57:27;100632.28;;;21.34;55.87
73842;BME280;62184;52.006;5.924;2023-05-22T04:59:53;100631.00;;;21.40;55.49
73842;BME280;62184;52.006;5.924;2023-05-22T05:02:20;100631.28;;;21.48;55.62
73842;BME280;62184;52.006;5.924;2023-05-22T05:04:46;100630.63;;;21.57;55.79
73842;BME280;62184;52.006;5.924;2023-05-22T05:07:12;100631.78;;;21.66;55.78
73842;BME280;62184;52.006;5.924;2023-05-22T05:09:39;100632.13;;;21.74;55.63
73842;BME280;62184;52.006;5.924;2023-05-22T05:12:06;100639.69;;;21.82;55.46
73842;BME280;62184;52.006;5.924;2023-05-22T05:14:35;100648.94;;;21.79;54.82
73842;BME280;62184;52.006;5.924;2023-05-22T05:17:01;100651.44;;;21.69;55.19
73842;BME280;62184;52.006;5.924;2023-05-22T05:19:28;100647.34;;;21.64;54.75
73842;BME280;62184;52.006;5.924;2023-05-22T05:21:54;100658.56;;;21.59;54.79
73842;BME280;62184;52.006;5.924;2023-05-22T05:24:21;100652.06;;;21.49;54.84
73842;BME280;62184;52.006;5.924;2023-05-22T05:26:48;100653.25;;;21.45;54.97
73842;BME280;62184;52.006;5.924;2023-05-22T05:29:15;100654.47;;;21.41;54.93
73842;BME280;62184;52.006;5.924;2023-05-22T05:31:44;100657.41;;;21.38;55.29
73842;BME280;62184;52.006;5.924;2023-05-22T05:34:10;100649.16;;;21.40;55.49
73842;BME280;62184;52.006;5.924;2023-05-22T05:36:37;100659.56;;;21.46;55.54
73842;BME280;62184;52.006;5.924;2023-05-22T05:39:03;100665.75;;;21.48;55.41
73842;BME280;62184;52.006;5.924;2023-05-22T05:41:30;100658.69;;;21.45;54.95
73842;BME280;62184;52.006;5.924;2023-05-22T05:43:56;100654.78;;;21.37;55.13
73842;BME280;62184;52.006;5.924;2023-05-22T05:46:22;100654.91;;;21.35;55.41
73842;BME280;62184;52.006;5.924;2023-05-22T05:48:51;100654.91;;;21.35;55.27
73842;BME280;62184;52.006;5.924;2023-05-22T05:51:18;100656.88;;;21.33;55.76
73842;BME280;62184;52.006;5.924;2023-05-22T05:53:44;100658.69;;;21.45;55.86
73842;BME280;62184;52.006;5.924;2023-05-22T05:56:11;100671.59;;;21.54;55.21
73842;BME280;62184;52.006;5.924;2023-05-22T05:58:37;100676.94;;;21.56;55.23
73842;BME280;62184;52.006;5.924;2023-05-22T06:01:04;100670.63;;;21.55;55.26
73842;BME280;62184;52.006;5.924;2023-05-22T06:03:30;100661.81;;;21.64;55.68
73842;BME280;62184;52.006;5.924;2023-05-22T06:05:59;100665.38;;;21.78;55.96
73842;BME280;62184;52.006;5.924;2023-05-22T06:08:25;100668.81;;;21.92;55.41
73842;BME280;62184;52.006;5.924;2023-05-22T06:10:52;100667.78;;;22.06;55.74
73842;BME280;62184;52.006;5.924;2023-05-22T06:13:18;100674.78;;;22.21;55.05
73842;BME280;62184;52.006;5.924;2023-05-22T06:15:45;100672.44;;;22.28;55.20
73842;BME280;62184;52.006;5.924;2023-05-22T06:18:11;100672.22;;;22.31;55.23
73842;BME280;62184;52.006;5.924;2023-05-22T06:20:38;100673.59;;;22.36;55.17
73842;BME280;62184;52.006;5.924;2023-05-22T06:23:07;100673.88;;;22.44;55.11
73842;BME280;62184;52.006;5.924;2023-05-22T06:25:33;100673.72;;;22.59;54.98
73842;BME280;62184;52.006;5.924;2023-05-22T06:28:00;100673.28;;;22.76;55.03
73842;BME280;62184;52.006;5.924;2023-05-22T06:30:26;100673.22;;;23.00;54.88
73842;BME280;62184;52.006;5.924;2023-05-22T06:32:52;100680.75;;;23.07;54.04
73842;BME280;62184;52.006;5.924;2023-05-22T06:35:19;100671.41;;;23.23;53.96
73842;BME280;62184;52.006;5.924;2023-05-22T06:37:45;100676.84;;;23.23;53.35
73842;BME280;62184;52.006;5.924;2023-05-22T06:40:14;100679.28;;;23.14;53.53
73842;BME280;62184;52.006;5.924;2023-05-22T06:42:42;100676.94;;;23.10;53.37
73842;BME280;62184;52.006;5.924;2023-05-22T06:45:09;100691.81;;;23.17;53.85
73842;BME280;62184;52.006;5.924;2023-05-22T06:47:36;100682.44;;;23.32;53.73
73842;BME280;62184;52.006;5.924;2023-05-22T06:50:03;100691.59;;;23.42;53.60
73842;BME280;62184;52.006;5.924;2023-05-22T06:52:30;100691.47;;;23.55;53.58
73842;BME280;62184;52.006;5.924;2023-05-22T06:54:57;100687.47;;;23.70;54.08
73842;BME280;62184;52.006;5.924;2023-05-22T06:57:26;100692.69;;;23.95;53.91
73842;BME280;62184;52.006;5.924;2023-05-22T06:59:52;100695.84;;;24.23;53.11
73842;BME280;62184;52.006;5.924;2023-05-22T07:02:19;100699.13;;;24.38;52.09
73842;BME280;62184;52.006;5.924;2023-05-22T07:04:45;100692.53;;;24.40;52.00
73842;BME280;62184;52.006;5.924;2023-05-22T07:07:11;100694.25;;;24.52;51.81
73842;BME280;62184;52.006;5.924;2023-05-22T07:09:38;100694.22;;;24.63;51.72
73842;BME280;62184;52.006;5.924;2023-05-22T07:12:06;100705.34;;;24.72;51.25
73842;BME280;62184;52.006;5.924;2023-05-22T07:14:36;100700.22;;;24.78;51.58
73842;BME280;62184;52.006;5.924;2023-05-22T07:17:02;100697.28;;;24.91;51.44
73842;BME280;62184;52.006;5.924;2023-05-22T07:19:29;100703.09;;;24.97;50.89
73842;BME280;62184;52.006;5.924;2023-05-22T07:21:55;100699.22;;;25.00;51.66
73842;BME280;62184;52.006;5.924;2023-05-22T07:24:21;100696.25;;;25.13;51.78
73842;BME280;62184;52.006;5.924;2023-05-22T07:26:48;100702.00;;;25.30;51.11
73842;BME280;62184;52.006;5.924;2023-05-22T07:29:14;100708.69;;;25.68;50.49
73842;BME280;62184;52.006;5.924;2023-05-22T07:31:44;100706.69;;;25.79;50.07
73842;BME280;62184;52.006;5.924;2023-05-22T07:34:10;100705.47;;;25.93;49.94
73842;BME280;62184;52.006;5.924;2023-05-22T07:36:36;100695.38;;;26.03;49.72
73842;BME280;62184;52.006;5.924;2023-05-22T07:39:03;100704.81;;;26.10;49.12
73842;BME280;62184;52.006;5.924;2023-05-22T07:41:29;100704.63;;;26.02;48.91
73842;BME280;62184;52.006;5.924;2023-05-22T07:43:56;100708.25;;;26.03;49.91
73842;BME280;62184;52.006;5.924;2023-05-22T07:46:22;100711.63;;;25.86;49.78
73842;BME280;62184;52.006;5.924;2023-05-22T07:48:51;100706.72;;;25.89;50.65
73842;BME280;62184;52.006;5.924;2023-05-22T07:51:18;100700.88;;;26.03;50.34
73842;BME280;62184;52.006;5.924;2023-05-22T07:53:44;100715.75;;;26.30;50.43
73842;BME280;62184;52.006;5.924;2023-05-22T07:56:11;100720.59;;;26.56;50.01
73842;BME280;62184;52.006;5.924;2023-05-22T07:58:37;100719.72;;;26.75;49.38
73842;BME280;62184;52.006;5.924;2023-05-22T08:01:03;100717.25;;;26.91;48.96
73842;BME280;62184;52.006;5.924;2023-05-22T08:03:30;100713.47;;;27.12;48.75
73842;BME280;62184;52.006;5.924;2023-05-22T08:05:59;100719.66;;;27.33;48.55
73842;BME280;62184;52.006;5.924;2023-05-22T08:08:25;100711.78;;;27.48;47.42
73842;BME280;62184;52.006;5.924;2023-05-22T08:10:52;100713.97;;;27.54;47.59
73842;BME280;62184;52.006;5.924;2023-05-22T08:13:18;100716.50;;;27.65;47.15
73842;BME280;62184;52.006;5.924;2023-05-22T08:15:45;100727.00;;;27.79;47.06
73842;BME280;62184;52.006;5.924;2023-05-22T08:18:11;100716.31;;;27.86;46.09
73842;BME280;62184;52.006;5.924;2023-05-22T08:20:38;100721.16;;;27.92;46.65
73842;BME280;62184;52.006;5.924;2023-05-22T08:23:07;100721.94;;;28.12;46.19
73842;BME280;62184;52.006;5.924;2023-05-22T08:25:33;100721.38;;;28.35;45.89
73842;BME280;62184;52.006;5.924;2023-05-22T08:28:00;100725.94;;;28.45;45.64
73842;BME280;62184;52.006;5.924;2023-05-22T08:30:26;100723.25;;;28.53;45.72
73842;BME280;62184;52.006;5.924;2023-05-22T08:32:53;100715.63;;;28.64;45.13
73842;BME280;62184;52.006;5.924;2023-05-22T08:35:19;100715.94;;;28.79;44.41
73842;BME280;62184;52.006;5.924;2023-05-22T08:37:46;100713.66;;;28.92;44.41
73842;BME280;62184;52.006;5.924;2023-05-22T08:40:15;100716.59;;;29.16;43.78
73842;BME280;62184;52.006;5.924;2023-05-22T08:42:45;100718.13;;;29.37;43.79
73842;BME280;62184;52.006;5.924;2023-05-22T08:45:12;100712.41;;;29.56;43.34
73842;BME280;62184;52.006;5.924;2023-05-22T08:47:39;100703.75;;;29.77;42.81
73842;BME280;62184;52.006;5.924;2023-05-22T08:50:08;100706.56;;;29.93;42.33
73842;BME280;62184;52.006;5.924;2023-05-22T08:52:41;100710.13;;;29.77;41.24
73842;BME280;62184;52.006;5.924;2023-05-22T08:55:18;100704.06;;;29.48;41.08
73842;BME280;62184;52.006;5.924;2023-05-22T08:57:45;100709.28;;;29.51;41.99
73842;BME280;62184;52.006;5.924;2023-05-22T09:00:13;100704.03;;;29.66;41.79
73842;BME280;62184;52.006;5.924;2023-05-22T09:02:41;100698.38;;;29.67;41.06
73842;BME280;62184;52.006;5.924;2023-05-22T09:05:08;100704.00;;;29.58;40.73
73842;BME280;62184;52.006;5.924;2023-05-22T09:07:35;100698.13;;;29.86;40.71
73842;BME280;62184;52.006;5.924;2023-05-22T09:10:01;100695.69;;;30.34;39.99
73842;BME280;62184;52.006;5.924;2023-05-22T09:12:31;100690.78;;;30.61;39.24
73842;BME280;62184;52.006;5.924;2023-05-22T09:15:04;100697.16;;;30.86;38.40
73842;BME280;62184;52.006;5.924;2023-05-22T09:17:33;100697.31;;;30.85;37.77
73842;BME280;62184;52.006;5.924;2023-05-22T09:20:00;100702.50;;;30.72;37.25
73842;BME280;62184;52.006;5.924;2023-05-22T09:22:34;100688.31;;;30.58;37.64
73842;BME280;62184;52.006;5.924;2023-05-22T09:25:01;100688.84;;;30.54;37.75
73842;BME280;62184;52.006;5.924;2023-05-22T09:27:30;100689.03;;;30.77;37.87
73842;BME280;62184;52.006;5.924;2023-05-22T09:29:57;100684.56;;;31.16;37.90
73842;BME280;62184;52.006;5.924;2023-05-22T09:32:24;100689.31;;;31.55;37.51
73842;BME280;62184;52.006;5.924;2023-05-22T09:35:01;100685.78;;;31.77;36.39
73842;BME280;62184;52.006;5.924;2023-05-22T09:37:31;100690.09;;;31.80;36.06
73842;BME280;62184;52.006;5.924;2023-05-22T09:40:03;100678.88;;;31.73;35.17
73842;BME280;62184;52.006;5.924;2023-05-22T09:42:34;100683.78;;;31.55;35.48
73842;BME280;62184;52.006;5.924;2023-05-22T09:45:05;100685.47;;;31.64;35.78
73842;BME280;62184;52.006;5.924;2023-05-22T09:47:33;100681.56;;;31.97;35.84
73842;BME280;62184;52.006;5.924;2023-05-22T09:50:01;100682.50;;;32.12;35.01
73842;BME280;62184;52.006;5.924;2023-05-22T09:52:32;100671.72;;;32.26;34.11
73842;BME280;62184;52.006;5.924;2023-05-22T09:55:02;100672.31;;;32.44;33.49
73842;BME280;62184;52.006;5.924;2023-05-22T09:57:31;100674.38;;;32.73;33.66
73842;BME280;62184;52.006;5.924;2023-05-22T10:00:05;100688.72;;;32.45;33.69
73842;BME280;62184;52.006;5.924;2023-05-22T10:02:34;100679.28;;;32.01;34.36
73842;BME280;62184;52.006;5.924;2023-05-22T10:05:03;100676.63;;;31.76;35.64
73842;BME280;62184;52.006;5.924;2023-05-22T10:07:34;100679.25;;;31.62;36.04
73842;BME280;62184;52.006;5.924;2023-05-22T10:10:04;100678.03;;;31.64;36.29
73842;BME280;62184;52.006;5.924;2023-05-22T10:12:40;100670.97;;;31.70;35.88
73842;BME280;62184;52.006;5.924;2023-05-22T10:15:10;100677.16;;;31.80;35.84
73842;BME280;62184;52.006;5.924;2023-05-22T10:17:38;100674.44;;;31.72;35.16
73842;BME280;62184;52.006;5.924;2023-05-22T10:20:07;100682.94;;;31.46;35.23
73842;BME280;62184;52.006;5.924;2023-05-22T10:22:36;100670.69;;;31.40;36.00
73842;BME280;62184;52.006;5.924;2023-05-22T10:25:04;100677.94;;;31.41;35.78
73842;BME280;62184;52.006;5.924;2023-05-22T10:27:34;100678.69;;;31.27;35.93
73842;BME280;62184;52.006;5.924;2023-05-22T10:30:15;100667.91;;;31.49;35.67
73842;BME280;62184;52.006;5.924;2023-05-22T10:32:51;100666.38;;;31.93;35.89
73842;BME280;62184;52.006;5.924;2023-05-22T10:35:28;100668.91;;;32.34;35.27
73842;BME280;62184;52.006;5.924;2023-05-22T10:38:16;100667.00;;;32.57;35.46
73842;BME280;62184;52.006;5.924;2023-05-22T10:40:51;100655.88;;;32.65;34.41
73842;BME280;62184;52.006;5.924;2023-05-22T10:43:21;100668.25;;;32.77;34.11
73842;BME280;62184;52.006;5.924;2023-05-22T10:45:47;100667.53;;;32.98;34.09
73842;BME280;62184;52.006;5.924;2023-05-22T10:48:14;100650.38;;;33.17;34.60
73842;BME280;62184;52.006;5.924;2023-05-22T10:50:49;100653.50;;;33.37;33.84
73842;BME280;62184;52.006;5.924;2023-05-22T10:53:21;100658.72;;;33.32;32.56
73842;BME280;62184;52.006;5.924;2023-05-22T10:55:50;100647.47;;;33.48;32.00
73842;BME280;62184;52.006;5.924;2023-05-22T10:58:24;100652.44;;;33.53;31.99
73842;BME280;62184;52.006;5.924;2023-05-22T11:01:07;100664.84;;;33.28;31.74
73842;BME280;62184;52.006;5.924;2023-05-22T11:03:54;100658.09;;;33.07;31.85
73842;BME280;62184;52.006;5.924;2023-05-22T11:06:35;100660.41;;;33.18;32.04
73842;BME280;62184;52.006;5.924;2023-05-22T11:09:26;100650.44;;;33.32;31.93
73842;BME280;62184;52.006;5.924;2023-05-22T11:12:11;100650.50;;;33.83;31.60
73842;BME280;62184;52.006;5.924;2023-05-22T11:14:42;100642.72;;;34.44;30.99
73842;BME280;62184;52.006;5.924;2023-05-22T11:17:12;100644.03;;;34.90;30.14
73842;BME280;62184;52.006;5.924;2023-05-22T11:19:41;100647.13;;;35.30;29.93
73842;BME280;62184;52.006;5.924;2023-05-22T11:22:08;100641.94;;;35.55;29.40
73842;BME280;62184;52.006;5.924;2023-05-22T11:24:36;100641.63;;;35.77;29.34
73842;BME280;62184;52.006;5.924;2023-05-22T11:27:04;100644.06;;;35.94;28.89
73842;BME280;62184;52.006;5.924;2023-05-22T11:29:32;100645.91;;;35.73;27.97
73842;BME280;62184;52.006;5.924;2023-05-22T11:32:01;100641.16;;;35.05;28.65
73842;BME280;62184;52.006;5.924;2023-05-22T11:34:28;100641.41;;;34.61;30.15
73842;BME280;62184;52.006;5.924;2023-05-22T11:36:58;100636.81;;;34.32;30.13
73842;BME280;62184;52.006;5.924;2023-05-22T11:39:25;100626.75;;;34.10;31.24
73842;BME280;62184;52.006;5.924;2023-05-22T11:41:51;100630.44;;;34.17;30.90
73842;BME280;62184;52.006;5.924;2023-05-22T11:44:18;100625.94;;;33.94;31.05
73842;BME280;62184;52.006;5.924;2023-05-22T11:46:45;100634.00;;;33.75;31.27
73842;BME280;62184;52.006;5.924;2023-05-22T11:49:14;100638.41;;;33.54;31.59
73842;BME280;62184;52.006;5.924;2023-05-22T11:51:41;100627.78;;;33.58;30.92
73842;BME280;62184;52.006;5.924;2023-05-22T11:54:07;100620.34;;;33.58;31.35
73842;BME280;62184;52.006;5.924;2023-05-22T11:56:33;100628.38;;;33.39;31.44
73842;BME280;62184;52.006;5.924;2023-05-22T11:59:00;100635.63;;;33.25;31.66
73842;BME280;62184;52.006;5.924;2023-05-22T12:01:26;100633.31;;;33.14;34.15
73842;BME280;62184;52.006;5.924;2023-05-22T12:03:53;100630.84;;;32.81;35.68
73842;BME280;62184;52.006;5.924;2023-05-22T12:06:22;100631.63;;;32.52;36.33
73842;BME280;62184;52.006;5.924;2023-05-22T12:08:48;100637.97;;;32.38;36.54
73842;BME280;62184;52.006;5.924;2023-05-22T12:11:15;100634.41;;;32.30;35.76
73842;BME280;62184;52.006;5.924;2023-05-22T12:13:42;100637.69;;;32.25;34.61
73842;BME280;62184;52.006;5.924;2023-05-22T12:16:18;100631.19;;;32.41;34.69
73842;BME280;62184;52.006;5.924;2023-05-22T12:18:46;100621.63;;;32.66;34.70
73842;BME280;62184;52.006;5.924;2023-05-22T12:21:12;100624.78;;;32.86;33.48
73842;BME280;62184;52.006;5.924;2023-05-22T12:23:49;100620.13;;;33.16;32.60
73842;BME280;62184;52.006;5.924;2023-05-22T12:26:16;100619.47;;;33.58;31.48
73842;BME280;62184;52.006;5.924;2023-05-22T12:28:44;100620.25;;;33.52;31.86
73842;BME280;62184;52.006;5.924;2023-05-22T12:31:10;100621.81;;;33.40;31.94
73842;BME280;62184;52.006;5.924;2023-05-22T12:33:45;100623.31;;;33.28;31.20
73842;BME280;62184;52.006;5.924;2023-05-22T12:36:11;100616.91;;;33.27;31.69
73842;BME280;62184;52.006;5.924;2023-05-22T12:38:39;100618.06;;;33.33;32.07
73842;BME280;62184;52.006;5.924;2023-05-22T12:41:08;100613.19;;;33.49;31.87
73842;BME280;62184;52.006;5.924;2023-05-22T12:43:35;100606.19;;;33.83;32.10
73842;BME280;62184;52.006;5.924;2023-05-22T12:46:01;100611.31;;;34.22;30.56
73842;BME280;62184;52.006;5.924;2023-05-22T12:48:28;100607.47;;;34.37;30.57
73842;BME280;62184;52.006;5.924;2023-05-22T12:50:54;100612.44;;;34.49;30.44
73842;BME280;62184;52.006;5.924;2023-05-22T12:53:21;100602.41;;;34.69;30.50
73842;BME280;62184;52.006;5.924;2023-05-22T12:55:47;100605.91;;;34.78;30.13
73842;BME280;62184;52.006;5.924;2023-05-22T12:58:16;100612.13;;;34.80;29.83